Tabor, Iowa
Current Conditions -  °F | °C
As of 2:35 AM on Saturday 29 Nov 2014 (Local Time) from KPMV Reporting Station
Clear Clear  
Wind Chill: 40°   Ceiling: Unl
Heat Index: 43°   Visibility: 10mi
Dew Point: 32°   Wind: 5mph
Humidity: 65%   Direction: 190°S
Pressure: 29.58"   Gusts: NA
Location:  40.9°N, 95.67°W
Report Text: KPMV 290835Z AUTO 19004KT 10SM CLR 06/00 A2958 RMK AO2 T00601001
Loading
Personal Weather Stations






























Interactive Weather Map New forecast layout! Learn more

10-Day Weather Forecast

Advertisements
Track Severe Weather on mobile